createdAt,value
2022-12-17T00:00:03.493Z,98859.28
2022-12-17T00:02:30.350Z,98865.69
2022-12-17T00:04:56.850Z,98860.06
2022-12-17T00:07:23.259Z,98873.22
2022-12-17T00:09:50.449Z,98863.97
2022-12-17T00:12:17.285Z,98853.34
2022-12-17T00:14:43.880Z,98849.47
2022-12-17T00:17:10.313Z,98852.28
2022-12-17T00:19:36.722Z,98866.81
2022-12-17T00:22:03.161Z,98863.34
2022-12-17T00:24:29.719Z,98850.94
2022-12-17T00:26:56.146Z,98865.50
2022-12-17T00:29:22.791Z,98870.19
2022-12-17T00:31:49.258Z,98853.88
2022-12-17T00:34:15.691Z,98868.59
2022-12-17T00:36:42.847Z,98879.34
2022-12-17T00:39:09.221Z,98867.75
2022-12-17T00:41:36.262Z,98877.16
2022-12-17T00:44:02.683Z,98868.66
2022-12-17T00:46:29.240Z,98870.94
2022-12-17T00:48:55.666Z,98869.19
2022-12-17T00:51:23.267Z,98872.22
2022-12-17T00:53:49.787Z,98868.53
2022-12-17T00:56:16.212Z,98871.88
2022-12-17T00:58:42.633Z,98887.94
2022-12-17T01:01:09.077Z,98864.56
2022-12-17T01:03:35.974Z,98868.50
2022-12-17T01:06:02.721Z,98879.31
2022-12-17T01:08:29.103Z,98883.56
2022-12-17T01:10:55.666Z,98895.41
2022-12-17T01:13:22.787Z,98907.38
2022-12-17T01:15:49.130Z,98908.44
2022-12-17T01:18:15.703Z,98916.16
2022-12-17T01:20:42.557Z,98915.50
2022-12-17T01:23:08.919Z,98908.84
2022-12-17T01:25:35.468Z,98909.41
2022-12-17T01:28:02.505Z,98899.31
2022-12-17T01:30:28.895Z,98889.81
2022-12-17T01:32:55.416Z,98877.66
2022-12-17T01:35:21.842Z,98883.81
2022-12-17T01:37:48.292Z,98874.97
2022-12-17T01:40:14.712Z,98874.94
2022-12-17T01:42:41.244Z,98875.59
2022-12-17T01:45:07.807Z,98884.34
2022-12-17T01:47:34.274Z,98889.34
2022-12-17T01:50:00.724Z,98893.28
2022-12-17T01:52:27.119Z,98901.41
2022-12-17T01:54:53.568Z,98895.78
2022-12-17T01:57:19.949Z,98903.69
2022-12-17T01:59:46.405Z,98918.09
2022-12-17T02:02:12.893Z,98935.31
2022-12-17T02:04:39.569Z,98945.03
2022-12-17T02:07:06.059Z,98949.28
2022-12-17T02:09:32.549Z,98949.75
2022-12-17T02:11:59.326Z,98965.63
2022-12-17T02:14:25.717Z,98968.25
2022-12-17T02:16:52.155Z,98968.09
2022-12-17T02:19:18.925Z,98982.91
2022-12-17T02:21:45.347Z,98980.09
2022-12-17T02:24:11.791Z,98998.09
2022-12-17T02:26:38.659Z,99004.84
2022-12-17T02:29:05.192Z,99012.78
2022-12-17T02:31:31.956Z,99015.50
2022-12-17T02:33:58.485Z,99018.31
2022-12-17T02:36:24.954Z,99032.03
2022-12-17T02:38:51.432Z,99038.00
2022-12-17T02:41:19.031Z,99043.72
2022-12-17T02:43:45.479Z,99045.78
2022-12-17T02:46:12.224Z,99048.03
2022-12-17T02:48:38.702Z,99051.53
2022-12-17T02:51:05.147Z,99065.28
2022-12-17T02:53:31.646Z,99064.97
2022-12-17T02:55:58.256Z,99063.75
2022-12-17T02:58:24.656Z,99069.97
2022-12-17T03:00:51.113Z,99061.25
2022-12-17T03:03:17.789Z,99070.28
2022-12-17T03:05:45.591Z,99066.72
2022-12-17T03:08:12.387Z,99069.16
2022-12-17T03:10:38.782Z,99073.94
2022-12-17T03:13:05.250Z,99070.09
2022-12-17T03:15:32.087Z,99076.56
2022-12-17T03:17:58.505Z,99070.88
2022-12-17T03:20:25.084Z,99074.00
2022-12-17T03:22:51.485Z,99077.41
2022-12-17T03:25:17.926Z,99085.41
2022-12-17T03:27:44.577Z,99077.00
2022-12-17T03:30:11.143Z,99075.34
2022-12-17T03:32:37.587Z,99071.06
2022-12-17T03:35:05.035Z,99071.16
2022-12-17T03:37:31.468Z,99071.56
2022-12-17T03:39:57.837Z,99067.53
2022-12-17T03:42:24.261Z,99065.41
2022-12-17T03:44:50.622Z,99059.34
2022-12-17T03:47:19.109Z,99074.50
2022-12-17T03:49:45.488Z,99072.78
2022-12-17T03:52:11.884Z,99106.75
2022-12-17T03:54:38.344Z,99092.94
2022-12-17T03:57:05.015Z,99089.50
2022-12-17T03:59:31.576Z,99088.28
2022-12-17T04:01:58.165Z,99094.63
2022-12-17T04:04:24.649Z,99093.22
2022-12-17T04:06:51.094Z,99105.97
2022-12-17T04:09:17.785Z,99097.00
2022-12-17T04:11:44.271Z,99091.44
2022-12-17T04:14:10.664Z,99100.06
2022-12-17T04:16:37.071Z,99103.44
2022-12-17T04:19:03.816Z,99104.41
2022-12-17T04:21:30.323Z,99111.56
2022-12-17T04:23:56.877Z,99121.47
2022-12-17T04:26:23.372Z,99117.88
2022-12-17T04:28:49.899Z,99127.84
2022-12-17T04:31:16.633Z,99127.56
2022-12-17T04:33:43.255Z,99133.03
2022-12-17T04:36:09.683Z,99137.41
2022-12-17T04:38:36.130Z,99147.81
2022-12-17T04:41:02.595Z,99154.91
2022-12-17T04:43:29.048Z,99140.16
2022-12-17T04:45:56.653Z,99141.97
2022-12-17T04:48:23.222Z,99149.63
2022-12-17T04:50:49.657Z,99160.84
2022-12-17T04:53:16.193Z,99166.63
2022-12-17T04:55:42.568Z,99160.47
2022-12-17T04:58:10.084Z,99158.72
2022-12-17T05:00:36.530Z,99163.06
2022-12-17T05:03:03.251Z,99164.78
2022-12-17T05:05:29.691Z,99166.53
2022-12-17T05:07:56.097Z,99180.28
2022-12-17T05:10:22.554Z,99178.31
2022-12-17T05:12:48.962Z,99173.59
2022-12-17T05:15:15.387Z,99178.03
2022-12-17T05:17:41.756Z,99173.72
2022-12-17T05:20:08.185Z,99181.16
2022-12-17T05:22:34.658Z,99197.63
2022-12-17T05:25:01.344Z,99189.09
2022-12-17T05:27:27.743Z,99193.63
2022-12-17T05:29:54.328Z,99204.63
2022-12-17T05:32:20.688Z,99192.97
2022-12-17T05:34:47.135Z,99196.13
2022-12-17T05:37:13.569Z,99204.72
2022-12-17T05:39:39.942Z,99207.28
2022-12-17T05:42:06.342Z,99207.88
2022-12-17T05:44:32.778Z,99207.84
2022-12-17T05:46:59.241Z,99198.19
2022-12-17T05:49:26.711Z,99212.31
2022-12-17T05:51:53.122Z,99215.63
2022-12-17T05:54:19.550Z,99212.75
2022-12-17T05:56:45.948Z,99221.69
2022-12-17T05:59:12.464Z,99235.19
2022-12-17T06:01:39.052Z,99237.75
2022-12-17T06:04:05.584Z,99249.94
2022-12-17T06:06:32.094Z,99262.59
2022-12-17T06:08:58.573Z,99274.44
2022-12-17T06:11:24.947Z,99271.75
2022-12-17T06:13:51.445Z,99274.47
2022-12-17T06:16:17.843Z,99283.91
2022-12-17T06:18:44.464Z,99276.00
2022-12-17T06:21:10.873Z,99275.34
2022-12-17T06:23:37.709Z,99277.81
2022-12-17T06:26:04.285Z,99282.09
2022-12-17T06:28:30.822Z,99295.13
2022-12-17T06:30:57.293Z,99304.63
2022-12-17T06:33:23.741Z,99304.47
2022-12-17T06:35:50.179Z,99307.81
2022-12-17T06:38:16.673Z,99322.69
2022-12-17T06:40:43.193Z,99317.34
2022-12-17T06:43:09.588Z,99311.34
2022-12-17T06:45:36.026Z,99320.00
2022-12-17T06:48:02.386Z,99325.22
2022-12-17T06:50:28.726Z,99339.75
2022-12-17T06:52:55.125Z,99338.03
2022-12-17T06:55:21.925Z,99348.06
2022-12-17T06:57:50.521Z,99348.31
2022-12-17T07:00:17.137Z,99363.00
2022-12-17T07:02:43.626Z,99376.81
2022-12-17T07:05:11.054Z,99375.09
2022-12-17T07:07:37.542Z,99375.84
2022-12-17T07:10:06.853Z,99389.78
2022-12-17T07:12:35.692Z,99388.72
2022-12-17T07:15:02.096Z,99394.81
2022-12-17T07:17:29.020Z,99389.78
2022-12-17T07:19:55.520Z,99398.41
2022-12-17T07:22:21.926Z,99398.47
2022-12-17T07:24:48.307Z,99394.19
2022-12-17T07:27:14.748Z,99391.59
2022-12-17T07:29:41.154Z,99406.19
2022-12-17T07:32:07.663Z,99392.34
2022-12-17T07:34:34.295Z,99395.69
2022-12-17T07:37:00.892Z,99406.22
2022-12-17T07:39:27.403Z,99411.31
2022-12-17T07:41:54.099Z,99414.53
2022-12-17T07:44:20.483Z,99423.44
2022-12-17T07:46:46.977Z,99424.28
2022-12-17T07:49:13.403Z,99424.28
2022-12-17T07:51:39.843Z,99419.09
2022-12-17T07:54:06.331Z,99428.53
2022-12-17T07:56:32.685Z,99439.81
2022-12-17T07:58:59.080Z,99438.06
2022-12-17T08:01:25.580Z,99454.44
2022-12-17T08:03:52.137Z,99463.03
2022-12-17T08:06:18.497Z,99474.16
2022-12-17T08:08:44.890Z,99478.53
2022-12-17T08:11:14.029Z,99469.84
2022-12-17T08:13:40.394Z,99466.50
2022-12-17T08:16:06.994Z,99474.22
2022-12-17T08:18:33.452Z,99486.31
2022-12-17T08:21:00.008Z,99483.72
2022-12-17T08:23:26.538Z,99483.69
2022-12-17T08:25:53.184Z,99481.16
2022-12-17T08:28:49.590Z,99487.19
2022-12-17T08:31:06.276Z,99481.06
2022-12-17T08:33:32.748Z,99482.75
2022-12-17T08:35:59.281Z,99478.47
2022-12-17T08:38:25.728Z,99474.13
2022-12-17T08:40:52.187Z,99491.47
2022-12-17T08:43:18.919Z,99484.53
2022-12-17T08:45:45.753Z,99497.31
2022-12-17T08:48:12.492Z,99500.69
2022-12-17T08:50:39.065Z,99511.97
2022-12-17T08:53:05.415Z,99492.16
2022-12-17T08:55:34.563Z,99500.78
2022-12-17T08:58:01.339Z,99503.53
2022-12-17T09:00:27.891Z,99507.84
2022-12-17T09:02:54.495Z,99500.88
2022-12-17T09:05:21.115Z,99507.72
2022-12-17T09:07:47.580Z,99517.22
2022-12-17T09:10:14.175Z,99518.16
2022-12-17T09:12:40.572Z,99516.28
2022-12-17T09:15:07.185Z,99496.50
2022-12-17T09:17:33.859Z,99510.97
2022-12-17T09:20:00.471Z,99533.69
2022-12-17T09:22:27.183Z,99525.94
2022-12-17T09:24:53.658Z,99537.13
2022-12-17T09:27:20.192Z,99549.16
2022-12-17T09:29:49.579Z,99530.22
2022-12-17T09:32:18.076Z,99538.00
2022-12-17T09:34:45.693Z,99523.34
2022-12-17T09:37:12.275Z,99524.16
2022-12-17T09:39:38.651Z,99540.34
2022-12-17T09:42:06.128Z,99556.03
2022-12-17T09:44:32.604Z,99539.66
2022-12-17T09:46:59.127Z,99544.88
2022-12-17T09:49:25.536Z,99537.03
2022-12-17T09:51:52.050Z,99536.25
2022-12-17T09:54:18.528Z,99541.38
2022-12-17T09:56:45.067Z,99555.19
2022-12-17T09:59:11.439Z,99554.38
2022-12-17T10:01:37.960Z,99556.94
2022-12-17T10:04:04.470Z,99563.78
2022-12-17T10:06:30.924Z,99573.31
2022-12-17T10:08:58.528Z,99584.50
2022-12-17T10:11:25.721Z,99575.94
2022-12-17T10:13:53.444Z,99568.19
2022-12-17T10:16:21.924Z,99569.88
2022-12-17T10:18:48.445Z,99578.50
2022-12-17T10:21:14.914Z,99582.81
2022-12-17T10:23:41.539Z,99593.06
2022-12-17T10:26:09.012Z,99575.84
2022-12-17T10:28:35.387Z,99578.47
2022-12-17T10:31:02.199Z,99585.13
2022-12-17T10:33:29.230Z,99580.13
2022-12-17T10:35:58.765Z,99587.09
2022-12-17T10:38:26.267Z,99603.38
2022-12-17T10:40:52.687Z,99599.19
2022-12-17T10:43:19.309Z,99609.53
2022-12-17T10:45:45.723Z,99615.50
2022-12-17T10:48:12.239Z,99623.31
2022-12-17T10:50:39.197Z,99621.53
2022-12-17T10:53:05.634Z,99625.78
2022-12-17T10:55:33.131Z,99647.44
2022-12-17T10:57:59.598Z,99631.94
2022-12-17T11:00:29.146Z,99636.91
2022-12-17T11:02:55.808Z,99636.75
2022-12-17T11:05:22.435Z,99643.94
2022-12-17T11:07:50.233Z,99645.63
2022-12-17T11:10:16.703Z,99636.03
2022-12-17T11:12:43.194Z,99636.03
2022-12-17T11:15:09.624Z,99641.97
2022-12-17T11:17:36.098Z,99660.34
2022-12-17T11:20:02.646Z,99660.94
2022-12-17T11:22:29.219Z,99657.41
2022-12-17T11:24:58.542Z,99671.44
2022-12-17T11:27:25.006Z,99664.50
2022-12-17T11:29:51.566Z,99675.47
2022-12-17T11:32:17.988Z,99673.06
2022-12-17T11:34:46.932Z,99688.63
2022-12-17T11:37:13.525Z,99688.53
2022-12-17T11:39:40.193Z,99680.75
2022-12-17T11:42:11.028Z,99681.88
2022-12-17T11:44:38.166Z,99691.34
2022-12-17T11:47:04.573Z,99685.22
2022-12-17T11:49:31.895Z,99684.34
2022-12-17T11:51:58.290Z,99683.28
2022-12-17T11:54:24.713Z,99695.50
2022-12-17T11:56:51.359Z,99691.31
2022-12-17T11:59:17.845Z,99692.16
2022-12-17T12:01:44.350Z,99691.22
2022-12-17T12:04:11.001Z,99704.31
2022-12-17T12:06:37.512Z,99699.94
2022-12-17T12:09:03.915Z,99719.78
2022-12-17T12:11:31.875Z,99709.28
2022-12-17T12:13:58.653Z,99717.97
2022-12-17T12:16:26.695Z,99710.19
2022-12-17T12:18:53.175Z,99722.41
2022-12-17T12:21:19.572Z,99722.47
2022-12-17T12:23:46.234Z,99716.34
2022-12-17T12:26:12.837Z,99708.66
2022-12-17T12:28:39.429Z,99712.97
2022-12-17T12:31:06.707Z,99705.88
2022-12-17T12:33:33.227Z,99703.34
2022-12-17T12:35:59.716Z,99718.19
2022-12-17T12:38:27.515Z,99712.91
2022-12-17T12:40:54.091Z,99716.22
2022-12-17T12:43:20.912Z,99716.13
2022-12-17T12:45:52.451Z,99712.69
2022-12-17T12:48:19.449Z,99727.66
2022-12-17T12:50:46.144Z,99737.19
2022-12-17T12:53:12.857Z,99741.47
2022-12-17T12:55:39.341Z,99750.94
2022-12-17T12:58:05.732Z,99738.81
2022-12-17T13:00:32.240Z,99748.25
2022-12-17T13:02:58.964Z,99747.50
2022-12-17T13:05:25.649Z,99750.94
2022-12-17T13:07:52.554Z,99747.50
2022-12-17T13:10:19.069Z,99752.69
2022-12-17T13:12:45.683Z,99759.59
2022-12-17T13:15:12.595Z,99753.56
2022-12-17T13:17:40.118Z,99763.03
2022-12-17T13:20:06.717Z,99766.47
2022-12-17T13:22:33.270Z,99768.22
2022-12-17T13:25:01.003Z,99767.38
2022-12-17T13:27:27.519Z,99776.84
2022-12-17T13:29:53.957Z,99770.84
2022-12-17T13:32:20.840Z,99782.88
2022-12-17T13:34:47.356Z,99788.06
2022-12-17T13:37:13.987Z,99794.91
2022-12-17T13:39:40.398Z,99809.66
2022-12-17T13:42:06.815Z,99813.09
2022-12-17T13:44:33.251Z,99813.09
2022-12-17T13:46:59.662Z,99807.84
2022-12-17T13:49:26.164Z,99809.66
2022-12-17T13:51:52.598Z,99821.72
2022-12-17T13:54:19.180Z,99822.56
2022-12-17T13:56:45.581Z,99826.06
2022-12-17T13:59:11.977Z,99833.84
2022-12-17T14:01:38.652Z,99840.72
2022-12-17T14:04:06.946Z,99845.00
2022-12-17T14:06:34.347Z,99847.59
2022-12-17T14:09:00.795Z,99847.63
2022-12-17T14:11:27.279Z,99854.56
2022-12-17T14:13:54.358Z,99854.53
2022-12-17T14:16:20.817Z,99866.66
2022-12-17T14:18:47.493Z,99872.63
2022-12-17T14:21:13.949Z,99870.06
2022-12-17T14:23:40.362Z,99870.94
2022-12-17T14:26:06.805Z,99875.28
2022-12-17T14:28:33.255Z,99877.88
2022-12-17T14:31:28.185Z,99876.16
2022-12-17T14:33:46.073Z,99883.03
2022-12-17T14:36:12.599Z,99882.19
2022-12-17T14:38:39.526Z,99893.41
2022-12-17T14:41:06.591Z,99905.50
2022-12-17T14:43:33.075Z,99904.63
2022-12-17T14:45:59.681Z,99904.63
2022-12-17T14:48:26.385Z,99906.34
2022-12-17T14:50:52.813Z,99904.56
2022-12-17T14:53:21.737Z,99907.19
2022-12-17T14:55:53.509Z,99920.19
2022-12-17T14:58:21.579Z,99917.59
2022-12-17T15:00:48.010Z,99912.22
2022-12-17T15:03:14.641Z,99920.03
2022-12-17T15:05:41.190Z,99919.28
2022-12-17T15:08:07.941Z,99928.66
2022-12-17T15:10:34.397Z,99919.28
2022-12-17T15:13:00.771Z,99927.84
2022-12-17T15:15:28.244Z,99933.09
2022-12-17T15:17:55.041Z,99935.66
2022-12-17T15:20:21.617Z,99948.63
2022-12-17T15:22:48.134Z,99940.78
2022-12-17T15:25:14.633Z,99945.94
2022-12-17T15:27:41.155Z,99953.00
2022-12-17T15:30:07.996Z,99961.56
2022-12-17T15:32:34.861Z,99956.41
2022-12-17T15:35:01.543Z,99965.47
2022-12-17T15:37:27.950Z,99966.63
2022-12-17T15:39:54.420Z,99973.50
2022-12-17T15:42:20.781Z,99976.03
2022-12-17T15:44:47.289Z,99988.41
2022-12-17T15:47:13.893Z,99985.44
2022-12-17T15:49:40.648Z,99982.25
2022-12-17T15:52:07.612Z,99994.94
2022-12-17T15:54:34.153Z,99995.25
2022-12-17T15:57:00.586Z,99994.28
2022-12-17T15:59:27.926Z,99997.53
2022-12-17T16:01:54.775Z,100007.78
2022-12-17T16:04:24.903Z,99995.97
2022-12-17T16:06:52.161Z,100004.41
2022-12-17T16:09:18.838Z,100000.66
2022-12-17T16:11:45.521Z,99999.25
2022-12-17T16:14:11.963Z,100009.78
2022-12-17T16:16:38.435Z,100019.13
2022-12-17T16:19:04.865Z,100020.78
2022-12-17T16:21:31.376Z,100017.50
2022-12-17T16:23:58.657Z,100020.00
2022-12-17T16:26:26.916Z,100026.00
2022-12-17T16:28:53.413Z,100020.16
2022-12-17T16:31:22.527Z,100026.84
2022-12-17T16:33:49.239Z,100034.94
2022-12-17T16:36:15.728Z,100029.72
2022-12-17T16:38:42.662Z,100034.34
2022-12-17T16:41:09.454Z,100031.59
2022-12-17T16:43:39.036Z,100031.41
2022-12-17T16:46:12.133Z,100059.78
2022-12-17T16:48:39.754Z,100057.31
2022-12-17T16:51:06.481Z,100052.53
2022-12-17T16:53:34.061Z,100052.28
2022-12-17T16:56:01.093Z,100061.75
2022-12-17T16:58:27.544Z,100064.56
2022-12-17T17:00:54.330Z,100067.78
2022-12-17T17:03:21.947Z,100072.53
2022-12-17T17:05:49.761Z,100072.50
2022-12-17T17:08:16.178Z,100080.16
2022-12-17T17:10:42.779Z,100083.25
2022-12-17T17:13:09.379Z,100090.53
2022-12-17T17:15:36.105Z,100088.75
2022-12-17T17:18:02.672Z,100095.00
2022-12-17T17:20:29.356Z,100086.28
2022-12-17T17:22:55.974Z,100090.25
2022-12-17T17:25:23.933Z,100099.22
2022-12-17T17:27:50.376Z,100095.34
2022-12-17T17:30:16.848Z,100102.13
2022-12-17T17:32:43.805Z,100099.44
2022-12-17T17:35:10.528Z,100099.56
2022-12-17T17:37:39.472Z,100109.59
2022-12-17T17:40:05.916Z,100111.16
2022-12-17T17:42:33.785Z,100123.34
2022-12-17T17:45:00.245Z,100109.63
2022-12-17T17:47:26.852Z,100113.88
2022-12-17T17:49:53.551Z,100113.63
2022-12-17T17:52:20.795Z,100124.19
2022-12-17T17:54:47.525Z,100115.47
2022-12-17T17:57:14.123Z,100126.81
2022-12-17T17:59:40.889Z,100135.75
2022-12-17T18:02:07.737Z,100147.88
2022-12-17T18:04:34.332Z,100142.97
2022-12-17T18:09:47.282Z,100138.28
2022-12-17T18:12:13.741Z,100155.28
2022-12-17T18:14:46.678Z,100156.47
2022-12-17T18:17:24.654Z,100148.38
2022-12-17T18:19:51.244Z,100166.53
2022-12-17T18:22:19.259Z,100160.53
2022-12-17T18:24:46.778Z,100165.06
2022-12-17T18:27:13.287Z,100170.97
2022-12-17T18:29:39.976Z,100181.19
2022-12-17T18:32:06.574Z,100177.22
2022-12-17T18:34:33.212Z,100173.66
2022-12-17T18:36:59.898Z,100178.25
2022-12-17T18:39:26.379Z,100187.78
2022-12-17T18:41:54.431Z,100187.28
2022-12-17T18:44:21.417Z,100190.94
2022-12-17T18:46:48.091Z,100199.91
2022-12-17T18:49:14.673Z,100210.66
2022-12-17T18:51:41.144Z,100206.50
2022-12-17T18:54:07.707Z,100220.44
2022-12-17T18:57:00.100Z,100222.53
2022-12-17T18:59:25.598Z,100226.13
2022-12-17T19:01:55.383Z,100233.31
2022-12-17T19:04:21.919Z,100236.47
2022-12-17T19:06:48.421Z,100246.97
2022-12-17T19:09:14.992Z,100239.34
2022-12-17T19:11:43.781Z,100251.63
2022-12-17T19:14:10.286Z,100251.47
2022-12-17T19:16:36.840Z,100254.25
2022-12-17T19:19:03.703Z,100255.97
2022-12-17T19:21:31.397Z,100263.38
2022-12-17T19:23:58.104Z,100266.47
2022-12-17T19:26:24.782Z,100262.28
2022-12-17T19:28:51.264Z,100258.78
2022-12-17T19:31:18.567Z,100276.00
2022-12-17T19:33:45.357Z,100271.78
2022-12-17T19:36:11.891Z,100281.28
2022-12-17T19:38:38.629Z,100286.50
2022-12-17T19:41:06.209Z,100284.81
2022-12-17T19:43:33.172Z,100295.19
2022-12-17T19:45:59.835Z,100290.81
2022-12-17T19:48:26.303Z,100298.47
2022-12-17T19:50:53.020Z,100295.06
2022-12-17T19:53:19.542Z,100299.47
2022-12-17T19:55:46.339Z,100300.19
2022-12-17T19:58:13.342Z,100303.59
2022-12-17T20:00:40.192Z,100306.94
2022-12-17T20:03:07.023Z,100301.94
2022-12-17T20:05:33.958Z,100306.25
2022-12-17T20:08:00.579Z,100312.91
2022-12-17T20:10:27.468Z,100309.22
2022-12-17T20:12:54.034Z,100316.25
2022-12-17T20:15:20.718Z,100320.59
2022-12-17T20:17:48.114Z,100320.72
2022-12-17T20:20:15.033Z,100321.69
2022-12-17T20:22:41.605Z,100330.38
2022-12-17T20:25:08.852Z,100330.47
2022-12-17T20:27:35.511Z,100336.75
2022-12-17T20:30:02.043Z,100334.47
2022-12-17T20:32:28.957Z,100338.13
2022-12-17T20:34:55.551Z,100337.94
2022-12-17T20:37:22.109Z,100338.28
2022-12-17T20:39:48.797Z,100339.72
2022-12-17T20:42:15.385Z,100346.66
2022-12-17T20:44:42.074Z,100352.91
2022-12-17T20:47:08.490Z,100345.31
2022-12-17T20:49:34.938Z,100353.69
2022-12-17T20:52:02.872Z,100352.03
2022-12-17T20:54:29.840Z,100370.13
2022-12-17T20:56:59.115Z,100364.03
2022-12-17T20:59:25.747Z,100363.84
2022-12-17T21:01:56.513Z,100362.50
2022-12-17T21:04:23.525Z,100359.44
2022-12-17T21:06:50.064Z,100361.88
2022-12-17T21:09:16.530Z,100361.06
2022-12-17T21:11:43.158Z,100358.59
2022-12-17T21:14:09.878Z,100362.03
2022-12-17T21:16:36.619Z,100364.63
2022-12-17T21:19:03.087Z,100369.81
2022-12-17T21:21:29.691Z,100380.06
2022-12-17T21:23:56.167Z,100388.56
2022-12-17T21:26:22.852Z,100393.81
2022-12-17T21:28:49.544Z,100400.63
2022-12-17T21:31:17.296Z,100403.00
2022-12-17T21:33:45.630Z,100400.34
2022-12-17T21:36:12.412Z,100402.34
2022-12-17T21:38:39.197Z,100411.78
2022-12-17T21:41:06.835Z,100402.38
2022-12-17T21:43:33.358Z,100405.81
2022-12-17T21:46:00.375Z,100408.16
2022-12-17T21:48:26.805Z,100410.19
2022-12-17T21:50:53.755Z,100410.75
2022-12-17T21:53:20.657Z,100411.50
2022-12-17T21:55:47.159Z,100408.94
2022-12-17T21:58:13.874Z,100411.38
2022-12-17T22:00:40.429Z,100419.13
2022-12-17T22:03:07.160Z,100420.88
2022-12-17T22:05:33.598Z,100420.84
2022-12-17T22:08:00.280Z,100425.97
2022-12-17T22:10:43.823Z,100425.22
2022-12-17T22:13:13.611Z,100428.34
2022-12-17T22:15:48.163Z,100428.59
2022-12-17T22:18:15.001Z,100430.09
2022-12-17T22:20:41.595Z,100428.75
2022-12-17T22:23:07.976Z,100429.53
2022-12-17T22:25:34.572Z,100436.63
2022-12-17T22:28:01.111Z,100433.19
2022-12-17T22:30:27.725Z,100439.84
2022-12-17T22:32:54.145Z,100440.72
2022-12-17T22:36:51.219Z,100453.56
2022-12-17T22:43:11.063Z,100448.44
2022-12-17T22:44:41.584Z,100444.91
2022-12-17T22:44:42.204Z,100443.31
2022-12-17T22:46:27.140Z,100444.38
2022-12-17T22:48:53.606Z,100447.38
2022-12-17T22:51:21.050Z,100453.03
2022-12-17T22:53:55.650Z,100448.16
2022-12-17T22:56:44.220Z,100453.00
2022-12-17T22:59:08.516Z,100448.06
2022-12-17T23:01:35.948Z,100455.72
2022-12-17T23:04:02.479Z,100455.59
2022-12-17T23:06:29.074Z,100456.38
2022-12-17T23:08:55.445Z,100452.50
2022-12-17T23:11:21.851Z,100463.47
2022-12-17T23:13:48.263Z,100461.88
2022-12-17T23:16:14.794Z,100459.41
2022-12-17T23:18:41.247Z,100464.81
2022-12-17T23:21:07.660Z,100463.47
2022-12-17T23:23:34.065Z,100468.22
2022-12-17T23:26:00.542Z,100469.28
2022-12-17T23:28:26.963Z,100472.25
2022-12-17T23:30:53.318Z,100469.75
2022-12-17T23:33:19.832Z,100476.84
2022-12-17T23:35:46.241Z,100475.78
2022-12-17T23:38:12.826Z,100474.09
2022-12-17T23:40:39.279Z,100482.19
2022-12-17T23:43:05.718Z,100481.38
2022-12-17T23:45:32.470Z,100482.94
2022-12-17T23:47:58.920Z,100487.19
2022-12-17T23:50:25.464Z,100487.53
2022-12-17T23:52:52.093Z,100494.53
2022-12-17T23:55:18.519Z,100496.34
2022-12-17T23:57:45.453Z,100497.78
